This is the latest recevied weather packets stored in our database for station/object IZ1UQG-1. If no packets are shown the sender has not sent any weather packets the latest 10 day(s).
| Time | Temp. | Humidity | Pressure | Rain* | Wind** | Luminosity | Snow |
|---|---|---|---|---|---|---|---|
| 1778068733 | 12.78° C | 84% | 1008.8 hPa | 167.64 mm | - | - | - |
| 1778068433 | 13.33° C | 84% | 1008.6 hPa | 194.06 mm | - | - | - |
| 1778068133 | 13.33° C | 84% | 1008.5 hPa | 218.44 mm | - | - | - |
| 1778067233 | 13.89° C | 84% | 1007.7 hPa | 13.21 mm | - | - | - |
| 1778066933 | 13.89° C | 84% | 1007.6 hPa | 19.3 mm | - | - | - |
| 1778066633 | 13.89° C | 84% | 1007.6 hPa | 21.84 mm | - | - | - |
| 1778066333 | 13.89° C | 84% | 1007.7 hPa | 13.21 mm | - | - | - |
| 1778066033 | 13.89° C | 85% | 1007.8 hPa | 47.24 mm | - | - | - |
| 1778065733 | 13.89° C | 84% | 1007.7 hPa | 38.1 mm | - | - | - |
| 1778065433 | 13.89° C | 84% | 1007.6 hPa | 36.58 mm | - | - | - |
| 1778065133 | 13.89° C | 85% | 1007.4 hPa | 85.09 mm | - | - | - |
| 1778064833 | 13.89° C | 85% | 1007.3 hPa | 65.02 mm | - | - | - |
| 1778064533 | 13.89° C | 85% | 1007.7 hPa | 58.67 mm | - | - | - |
| 1778064233 | 13.89° C | 85% | 1007.8 hPa | 54.1 mm | - | - | - |
| 1778063933 | 14.44° C | 85% | 1008 hPa | 56.13 mm | - | - | - |
| 1778063633 | 14.44° C | 85% | 1007.8 hPa | 78.99 mm | - | - | - |
| 1778063333 | 14.44° C | 85% | 1007.9 hPa | 83.06 mm | - | - | - |
| 1778063033 | 14.44° C | 85% | 1007.9 hPa | 86.11 mm | - | - | - |
| 1778062733 | 14.44° C | 85% | 1007.8 hPa | 62.99 mm | - | - | - |
| 1778062433 | 14.44° C | 85% | 1007.9 hPa | 65.53 mm | - | - | - |
| 1778062133 | 14.44° C | 85% | 1007.9 hPa | 81.53 mm | - | - | - |
| 1778061833 | 14.44° C | 85% | 1007.8 hPa | 85.6 mm | - | - | - |
| 1778061533 | 14.44° C | 85% | 1007.8 hPa | 44.2 mm | - | - | - |
| 1778061233 | 14.44° C | 85% | 1007.7 hPa | 85.09 mm | - | - | - |
| 1778060933 | 14.44° C | 85% | 1007.6 hPa | 87.63 mm | - | - | - |
* Rain latest hour (hover to see other rain measurements)
** Current wind speed in m/s (hover to see current wind gust speed)